createdAt,value
2019-05-15T00:04:42.165Z,2.60
2019-05-15T00:09:44.440Z,2.60
2019-05-15T00:14:48.474Z,2.27
2019-05-15T00:19:50.862Z,2.47
2019-05-15T00:24:53.113Z,2.67
2019-05-15T00:29:55.382Z,2.80
2019-05-15T00:34:58.266Z,2.80
2019-05-15T00:40:00.817Z,2.37
2019-05-15T00:45:04.158Z,2.10
2019-05-15T00:50:08.727Z,2.10
2019-05-15T00:55:11.138Z,2.43
2019-05-15T01:00:13.581Z,3.10
2019-05-15T01:05:16.051Z,2.33
2019-05-15T01:10:19.353Z,2.30
2019-05-15T01:15:21.755Z,2.23
2019-05-15T01:20:24.175Z,2.77
2019-05-15T01:25:28.060Z,2.70
2019-05-15T01:30:30.389Z,2.50
2019-05-15T01:35:32.972Z,2.50
2019-05-15T01:40:35.217Z,2.67
2019-05-15T01:45:39.330Z,2.70
2019-05-15T01:50:41.483Z,2.63
2019-05-15T01:55:43.757Z,2.90
2019-05-15T02:00:48.187Z,2.70
2019-05-15T02:05:50.176Z,2.67
2019-05-15T02:10:52.455Z,2.90
2019-05-15T02:15:54.804Z,2.57
2019-05-15T02:20:58.705Z,3.40
2019-05-15T02:26:01.541Z,2.63
2019-05-15T02:31:03.815Z,2.67
2019-05-15T02:36:09.420Z,2.90
2019-05-15T02:41:10.385Z,2.80
2019-05-15T02:46:12.745Z,2.53
2019-05-15T02:51:15.021Z,2.83
2019-05-15T02:56:20.291Z,2.80
2019-05-15T03:01:21.267Z,2.63
2019-05-15T03:06:23.555Z,3.17
2019-05-15T03:11:29.247Z,2.90
2019-05-15T03:16:30.602Z,3.05
2019-05-15T03:21:33.215Z,2.83
2019-05-15T03:26:35.484Z,2.80
2019-05-15T03:31:57.605Z,3.00
2019-05-15T03:36:44.982Z,2.70
2019-05-15T03:41:46.136Z,2.90
2019-05-15T03:46:49.210Z,2.73
2019-05-15T03:51:51.621Z,2.60
2019-05-15T03:56:53.937Z,3.10
2019-05-15T04:01:59.711Z,3.63
2019-05-15T04:07:00.728Z,2.90
2019-05-15T04:12:03.323Z,3.13
2019-05-15T04:17:08.870Z,2.90
2019-05-15T04:22:09.857Z,3.20
2019-05-15T04:27:12.792Z,3.00
2019-05-15T04:32:15.239Z,3.13
2019-05-15T04:37:18.943Z,3.70
2019-05-15T04:42:21.402Z,3.20
2019-05-15T04:47:23.710Z,3.73
2019-05-15T04:52:26.046Z,4.03
2019-05-15T04:57:33.481Z,3.50
2019-05-15T05:02:32.648Z,3.67
2019-05-15T05:07:35.010Z,3.60
2019-05-15T05:12:41.333Z,3.47
2019-05-15T05:17:41.311Z,3.70
2019-05-15T05:22:43.646Z,3.67
2019-05-15T05:27:45.926Z,3.57
2019-05-15T05:32:48.734Z,4.80
2019-05-15T05:37:51.069Z,3.70
2019-05-15T05:42:53.351Z,3.67
2019-05-15T05:47:57.989Z,3.40
2019-05-15T05:52:59.596Z,3.83
2019-05-15T05:58:01.873Z,3.87
2019-05-15T06:03:04.488Z,3.90
2019-05-15T06:08:08.106Z,4.70
2019-05-15T06:13:10.523Z,3.43
2019-05-15T06:18:12.876Z,3.43
2019-05-15T06:23:15.198Z,3.30
2019-05-15T06:28:19.690Z,2.77
2019-05-15T06:33:21.880Z,2.40
2019-05-15T06:38:24.180Z,2.50
2019-05-15T06:43:28.056Z,2.50
2019-05-15T06:48:30.486Z,2.12
2019-05-15T06:53:32.836Z,2.05
2019-05-15T06:58:35.112Z,2.33
2019-05-15T07:03:39.229Z,1.92
2019-05-15T07:08:41.530Z,1.90
2019-05-15T07:13:43.933Z,2.30
2019-05-15T07:18:48.324Z,2.12
2019-05-15T07:23:50.218Z,2.00
2019-05-15T07:28:52.476Z,1.87
2019-05-15T07:33:54.739Z,2.00
2019-05-15T07:38:57.957Z,1.90
2019-05-15T07:44:00.462Z,2.10
2019-05-15T07:49:02.723Z,2.02
2019-05-15T07:54:05.104Z,1.80
2019-05-15T07:59:08.060Z,1.70
2019-05-15T08:04:25.031Z,1.98
2019-05-15T08:09:14.454Z,1.73
2019-05-15T08:14:18.500Z,1.50
2019-05-15T08:19:20.710Z,1.90
2019-05-15T08:24:23.001Z,1.50
2019-05-15T08:29:25.276Z,1.60
2019-05-15T08:34:28.260Z,1.50
2019-05-15T08:39:30.687Z,1.80
2019-05-15T08:44:33.060Z,1.77
2019-05-15T08:49:40.610Z,1.70
2019-05-15T08:54:39.345Z,1.90
2019-05-15T08:59:42.576Z,1.80
2019-05-15T09:04:44.895Z,1.77
2019-05-15T09:09:48.710Z,1.45
2019-05-15T09:14:52.057Z,1.75
2019-05-15T09:19:56.096Z,1.50
2019-05-15T09:24:58.977Z,1.67
2019-05-15T09:30:01.437Z,2.08
2019-05-15T09:35:04.284Z,1.65
2019-05-15T09:40:08.850Z,1.72
2019-05-15T09:45:11.076Z,1.95
2019-05-15T09:50:13.619Z,1.80
2019-05-15T09:55:18.067Z,1.85
2019-05-15T10:00:20.862Z,1.90
2019-05-15T10:05:23.200Z,1.85
2019-05-15T10:10:25.551Z,1.50
2019-05-15T10:15:27.868Z,1.85
2019-05-15T10:20:30.157Z,1.80
2019-05-15T10:25:32.434Z,2.02
2019-05-15T10:30:34.780Z,2.00
2019-05-15T10:35:39.267Z,1.80
2019-05-15T10:40:58.179Z,1.80
2019-05-15T10:45:45.086Z,1.60
2019-05-15T10:50:47.451Z,1.77
2019-05-15T10:55:49.838Z,1.70
2019-05-15T11:00:52.165Z,1.50
2019-05-15T11:05:54.447Z,1.80
2019-05-15T11:10:58.521Z,1.80
2019-05-15T11:16:00.702Z,1.70
2019-05-15T11:21:02.996Z,1.95
2019-05-15T11:26:05.395Z,2.12
2019-05-15T11:31:10.278Z,2.05
2019-05-15T11:36:11.741Z,1.77
2019-05-15T11:41:14.005Z,2.02
2019-05-15T11:46:18.601Z,1.70
2019-05-15T11:51:20.557Z,1.90
2019-05-15T11:56:23.050Z,1.67
2019-05-15T12:01:25.345Z,1.67
2019-05-15T12:06:29.241Z,1.70
2019-05-15T12:11:36.912Z,1.60
2019-05-15T12:16:36.474Z,1.82
2019-05-15T12:21:39.826Z,1.85
2019-05-15T12:26:42.194Z,1.85
2019-05-15T12:31:44.456Z,1.50
2019-05-15T13:02:08.235Z,1.50
2019-05-15T13:07:16.423Z,1.60
2019-05-15T13:12:14.881Z,1.80
2019-05-15T13:17:18.377Z,1.50
2019-05-15T13:22:24.667Z,1.62
2019-05-15T13:27:25.104Z,1.45
2019-05-15T13:32:28.497Z,1.75
2019-05-15T13:37:31.181Z,1.77
2019-05-15T13:42:33.484Z,2.18
2019-05-15T13:47:35.795Z,1.77
2019-05-15T13:52:39.335Z,1.70
2019-05-15T13:57:41.805Z,1.60
2019-05-15T14:02:44.106Z,1.50
2019-05-15T14:07:50.655Z,1.70
2019-05-15T14:12:50.766Z,1.57
2019-05-15T14:17:53.077Z,1.65
2019-05-15T14:22:55.355Z,1.60
2019-05-15T14:27:59.402Z,1.60
2019-05-15T14:33:02.190Z,1.82
2019-05-15T14:38:06.833Z,1.47
2019-05-15T14:43:09.190Z,1.40
2019-05-15T14:48:11.620Z,1.60
2019-05-15T14:53:14.241Z,1.70
2019-05-15T14:58:19.518Z,1.60
2019-05-15T15:03:20.554Z,1.42
2019-05-15T15:08:25.349Z,1.47
2019-05-15T15:13:28.807Z,1.57
2019-05-15T15:18:30.844Z,1.47
2019-05-15T15:23:33.109Z,2.00
2019-05-15T15:28:35.383Z,1.50
2019-05-15T15:33:39.180Z,1.45
2019-05-15T15:38:44.155Z,1.60
2019-05-15T15:43:48.417Z,1.57
2019-05-15T15:48:49.949Z,1.50
2019-05-15T15:53:52.220Z,1.40
2019-05-15T15:58:54.507Z,1.52
2019-05-15T16:03:57.286Z,1.60
2019-05-15T16:08:59.899Z,1.42
2019-05-15T16:14:02.233Z,3.45
2019-05-15T16:19:04.676Z,1.98
2019-05-15T16:24:17.399Z,2.47
2019-05-15T16:29:11.084Z,1.60
2019-05-15T16:34:13.661Z,1.70
2019-05-15T16:39:18.115Z,1.50
2019-05-15T16:44:20.039Z,1.87
2019-05-15T16:49:22.424Z,1.20
2019-05-15T16:54:25.096Z,1.40
2019-05-15T16:59:30.006Z,1.32
2019-05-15T17:04:31.405Z,1.40
2019-05-15T17:09:33.693Z,1.45
2019-05-15T17:14:38.857Z,1.35
2019-05-15T17:19:40.473Z,1.60
2019-05-15T17:24:42.786Z,1.50
2019-05-15T17:29:45.035Z,1.32
2019-05-15T17:34:48.781Z,1.57
2019-05-15T17:39:51.200Z,1.62
2019-05-15T17:44:55.205Z,1.50
2019-05-15T17:49:58.889Z,2.30
2019-05-15T17:55:01.782Z,1.90
2019-05-15T18:00:11.646Z,1.87
2019-05-15T18:05:12.172Z,1.40
2019-05-15T18:10:14.767Z,1.20
2019-05-15T18:15:17.454Z,1.20
2019-05-15T18:20:23.985Z,1.12
2019-05-15T18:25:26.426Z,1.00
2019-05-15T18:30:28.920Z,1.25
2019-05-15T18:35:32.965Z,1.17
2019-05-15T18:40:35.487Z,1.20
2019-05-15T18:45:38.318Z,1.14
2019-05-15T18:50:40.752Z,1.62
2019-05-15T18:55:43.096Z,1.17
2019-05-15T19:00:45.442Z,1.40
2019-05-15T19:05:47.885Z,1.10
2019-05-15T19:10:50.269Z,1.23
2019-05-15T19:15:52.875Z,1.30
2019-05-15T19:20:55.221Z,1.00
2019-05-15T19:25:58.053Z,2.70
2019-05-15T19:31:00.471Z,2.03
2019-05-15T19:36:02.875Z,1.33
2019-05-15T19:41:06.707Z,1.60
2019-05-15T19:46:09.477Z,1.83
2019-05-15T19:51:11.821Z,1.90
2019-05-15T19:56:14.108Z,1.40
2019-05-15T20:01:18.588Z,1.20
2019-05-15T20:06:20.449Z,2.50
2019-05-15T20:11:22.786Z,1.20
2019-05-15T20:16:25.212Z,1.10
2019-05-15T20:21:28.978Z,1.30
2019-05-15T20:26:31.660Z,1.00
2019-05-15T20:31:34.036Z,1.40
2019-05-15T20:36:38.529Z,1.23
2019-05-15T20:41:40.427Z,1.10
2019-05-15T20:46:42.740Z,1.37
2019-05-15T20:51:45.106Z,1.27
2019-05-15T20:56:48.989Z,1.40
2019-05-15T21:01:52.693Z,1.20
2019-05-15T21:06:55.081Z,1.37
2019-05-15T21:11:58.820Z,1.40
2019-05-15T21:17:01.150Z,1.20
2019-05-15T21:22:03.511Z,1.17
2019-05-15T21:27:05.856Z,1.30
2019-05-15T21:32:08.498Z,1.20
2019-05-15T21:37:11.215Z,1.33
2019-05-15T21:42:13.553Z,1.27
2019-05-15T21:47:18.502Z,2.47
2019-05-15T21:52:20.789Z,2.40
2019-05-15T21:57:32.785Z,1.37
2019-05-15T22:02:29.604Z,1.50
2019-05-15T22:07:31.233Z,1.20
2019-05-15T22:12:33.595Z,1.27
2019-05-15T22:17:38.293Z,1.40
2019-05-15T22:22:40.037Z,1.30
2019-05-15T22:27:42.404Z,1.47
2019-05-15T22:32:44.680Z,1.50
2019-05-15T22:37:48.961Z,1.33
2019-05-15T22:42:50.939Z,1.40
2019-05-15T22:47:53.207Z,1.80
2019-05-15T22:52:58.386Z,1.70
2019-05-15T22:57:59.774Z,1.67
2019-05-15T23:03:02.947Z,2.63
2019-05-15T23:08:05.377Z,2.40
2019-05-15T23:13:07.646Z,2.60
2019-05-15T23:18:09.990Z,1.90
2019-05-15T23:23:12.300Z,1.90
2019-05-15T23:28:14.873Z,1.70
2019-05-15T23:33:18.835Z,2.20
2019-05-15T23:38:21.279Z,1.77
2019-05-15T23:43:23.545Z,1.57
2019-05-15T23:48:28.283Z,1.70
2019-05-15T23:53:30.088Z,1.50
2019-05-15T23:58:32.379Z,1.90
